Time;durP1;ratioP1;P1;durP2;ratioP2;P2;SDS_P1;SDS_P2;PMS_P1;PMS_P2;Temp;Humidity;BMP_temperature;BMP_pressure;BME280_temperature;BME280_humidity;BME280_pressure;Samples;Min_cycle;Max_cycle;Signal;HPM_P1;HPM_P2
2023/12/07 00:00:08;;;;;;;12.98;11.88;;;;;;;5.41;85.93;94531.28;5079297;28;20235;-68
2023/12/07 00:02:39;;;;;;;12.23;11.23;;;;;;;5.40;86.00;94535.16;5078898;28;20184;-69
2023/12/07 00:05:07;;;;;;;13.18;12.07;;;;;;;5.41;85.95;94539.50;5096815;28;20184;-69
2023/12/07 00:07:34;;;;;;;13.27;11.98;;;;;;;5.41;86.29;94544.97;5096963;28;20242;-69
2023/12/07 00:10:01;;;;;;;14.48;13.07;;;;;;;5.40;85.88;94546.09;5096121;28;20235;-69
2023/12/07 00:12:28;;;;;;;13.82;12.63;;;;;;;5.38;86.02;94548.41;5096466;28;20291;-69
2023/12/07 00:14:55;;;;;;;13.73;12.63;;;;;;;5.38;86.24;94540.97;5062173;28;20245;-69
2023/12/07 00:17:24;;;;;;;13.68;12.48;;;;;;;5.40;86.14;94535.97;5056038;28;20304;-69
2023/12/07 00:19:55;;;;;;;13.60;12.40;;;;;;;5.43;86.07;94548.19;5055492;28;20645;-69
2023/12/07 00:22:24;;;;;;;13.43;12.18;;;;;;;5.42;85.93;94547.38;5038560;28;20202;-69
2023/12/07 00:24:53;;;;;;;13.40;12.20;;;;;;;5.40;86.07;94541.44;5056121;28;20201;-69
2023/12/07 00:27:19;;;;;;;14.35;12.95;;;;;;;5.41;85.64;94542.22;5055084;28;20668;-69
2023/12/07 00:29:46;;;;;;;14.35;13.05;;;;;;;5.40;85.91;94538.69;5055865;28;20285;-69
2023/12/07 00:32:13;;;;;;;14.43;13.02;;;;;;;5.42;85.70;94544.66;5056581;28;20221;-69
2023/12/07 00:34:41;;;;;;;14.43;13.10;;;;;;;5.42;85.59;94550.13;5055373;28;20293;-69
2023/12/07 00:37:09;;;;;;;15.38;14.00;;;;;;;5.43;85.68;94542.72;5055423;28;20284;-69
2023/12/07 00:39:37;;;;;;;17.33;15.73;;;;;;;5.41;85.69;94545.78;5056324;28;20271;-69
2023/12/07 00:42:04;;;;;;;18.27;16.38;;;;;;;5.42;85.81;94543.84;5055798;28;20182;-69
2023/12/07 00:44:31;;;;;;;17.13;15.60;;;;;;;5.42;85.69;94552.06;5054870;28;20224;-69
2023/12/07 00:46:58;;;;;;;18.02;16.40;;;;;;;5.42;85.95;94549.31;5054536;28;20229;-69
2023/12/07 00:49:25;;;;;;;18.58;16.77;;;;;;;5.41;86.05;94545.78;5055594;28;20217;-69
2023/12/07 00:51:53;;;;;;;18.58;16.83;;;;;;;5.44;86.59;94534.16;5055316;28;20182;-69
2023/12/07 00:54:22;;;;;;;20.02;18.02;;;;;;;5.43;86.37;94534.50;5055219;28;20296;-69
2023/12/07 00:56:49;;;;;;;19.52;17.58;;;;;;;5.45;86.37;94535.00;5055780;28;20284;-69
2023/12/07 00:59:16;;;;;;;22.77;20.38;;;;;;;5.45;86.13;94537.72;5055600;28;20241;-69
2023/12/07 01:01:45;;;;;;;21.70;19.40;;;;;;;5.48;85.83;94529.66;5055178;28;20686;-69
2023/12/07 01:04:14;;;;;;;22.90;20.38;;;;;;;5.51;86.12;94536.38;5055170;28;20286;-69
2023/12/07 01:06:42;;;;;;;22.60;20.30;;;;;;;5.50;86.22;94532.03;5055307;28;20271;-69
2023/12/07 01:09:12;;;;;;;21.42;19.23;;;;;;;5.49;86.45;94528.50;5054676;28;20198;-69
2023/12/07 01:11:41;;;;;;;22.08;19.83;;;;;;;5.45;86.66;94537.72;5055230;28;20217;-69
2023/12/07 01:14:08;;;;;;;21.50;19.30;;;;;;;5.43;86.66;94531.78;5054774;28;20256;-69
2023/12/07 01:16:38;;;;;;;22.45;20.08;;;;;;;5.43;87.31;94531.78;5054316;28;20225;-69
2023/12/07 01:19:07;;;;;;;21.60;19.50;;;;;;;5.41;86.96;94534.84;5055036;28;20213;-68
2023/12/07 01:21:36;;;;;;;25.10;22.50;;;;;;;5.42;87.05;94530.97;5055305;28;20259;-68
2023/12/07 01:24:03;;;;;;;28.50;25.48;;;;;;;5.38;87.14;94529.25;5054286;28;20590;-68
2023/12/07 01:26:32;;;;;;;29.73;25.60;;;;;;;5.37;87.12;94535.84;5054868;28;20196;-68
2023/12/07 01:29:00;;;;;;;27.42;24.08;;;;;;;5.38;87.09;94529.25;5054900;28;20178;-68
2023/12/07 01:31:27;;;;;;;26.63;23.52;;;;;;;5.37;87.19;94525.69;5037641;28;20237;-68
2023/12/07 01:33:56;;;;;;;23.40;20.92;;;;;;;5.42;87.00;94527.44;5055104;28;20189;-68
2023/12/07 01:36:23;;;;;;;21.63;19.52;;;;;;;5.40;87.14;94529.69;5055079;28;20271;-68
2023/12/07 01:38:50;;;;;;;21.42;19.30;;;;;;;5.38;86.86;94524.56;5055226;28;20221;-68
2023/12/07 01:41:18;;;;;;;21.15;19.13;;;;;;;5.39;86.59;94526.16;5059108;28;20222;-69
2023/12/07 01:43:46;;;;;;;21.38;19.27;;;;;;;5.40;86.73;94526.97;5059243;28;20189;-68
2023/12/07 01:46:16;;;;;;;21.42;19.25;;;;;;;5.38;86.64;94524.56;5058150;28;20243;-68
2023/12/07 01:48:48;;;;;;;22.17;19.95;;;;;;;5.32;86.16;94521.22;5059419;28;20221;-69
2023/12/07 01:51:18;;;;;;;21.50;19.40;;;;;;;5.29;86.60;94523.81;5059287;28;20190;-68
2023/12/07 01:53:45;;;;;;;21.73;19.63;;;;;;;5.32;86.76;94515.75;5058378;28;20210;-68
2023/12/07 01:56:14;;;;;;;23.00;20.80;;;;;;;5.36;86.46;94526.03;5059134;28;20213;-68
2023/12/07 01:58:43;;;;;;;22.17;19.88;;;;;;;5.37;86.60;94519.41;5059619;28;20229;-69
2023/12/07 02:01:11;;;;;;;22.48;20.17;;;;;;;5.39;86.43;94523.44;5057981;28;20201;-69
2023/12/07 02:03:44;;;;;;;22.85;20.52;;;;;;;5.37;86.53;94513.94;5058793;28;20186;-68
2023/12/07 02:06:11;;;;;;;23.02;20.73;;;;;;;5.34;86.43;94515.44;5058567;28;20552;-68
2023/12/07 02:08:41;;;;;;;21.67;19.52;;;;;;;5.31;86.54;94518.84;5057726;28;20205;-68
2023/12/07 02:11:10;;;;;;;22.27;20.13;;;;;;;5.32;86.70;94523.97;5058443;28;20239;-68
2023/12/07 02:13:39;;;;;;;21.77;19.63;;;;;;;5.32;86.69;94520.44;5057395;28;20213;-68
2023/12/07 02:16:11;;;;;;;22.65;20.27;;;;;;;5.32;86.54;94515.75;5080555;28;20225;-68
2023/12/07 02:18:44;;;;;;;22.15;19.92;;;;;;;5.34;86.41;94514.63;5098405;28;20546;-68
2023/12/07 02:21:17;;;;;;;21.92;19.73;;;;;;;5.36;86.13;94513.16;5098647;28;20242;-69
2023/12/07 02:23:46;;;;;;;20.15;18.17;;;;;;;5.36;86.18;94509.63;5098982;28;20180;-68
2023/12/07 02:26:50;;;;;;;21.35;19.10;;;;;;;5.35;86.02;94514.31;5098295;28;20223;-68
2023/12/07 02:29:17;;;;;;;22.70;20.45;;;;;;;5.31;85.83;94519.63;5081559;28;20286;-68
2023/12/07 02:31:45;;;;;;;22.55;20.40;;;;;;;5.34;85.95;94518.19;5098602;28;20242;-68
2023/12/07 02:34:14;;;;;;;22.90;20.70;;;;;;;5.36;85.82;94515.09;5098185;28;20215;-68
2023/12/07 02:36:44;;;;;;;20.77;18.67;;;;;;;5.36;86.03;94512.34;5098383;28;20187;-68
2023/12/07 02:39:12;;;;;;;21.42;19.33;;;;;;;5.38;86.18;94510.91;5098098;28;20265;-69
2023/12/07 02:41:41;;;;;;;21.67;19.48;;;;;;;5.41;85.83;94503.94;5098324;28;20241;-69
2023/12/07 02:44:09;;;;;;;21.27;19.17;;;;;;;5.41;85.62;94504.78;5098101;28;20500;-69
2023/12/07 02:46:36;;;;;;;19.98;17.98;;;;;;;5.42;85.10;94505.56;5097940;28;20220;-69
2023/12/07 02:49:03;;;;;;;19.17;17.27;;;;;;;5.41;85.19;94504.78;5098674;28;20177;-69
2023/12/07 02:51:30;;;;;;;18.48;16.70;;;;;;;5.42;85.35;94498.16;5097139;28;20204;-69
2023/12/07 02:53:57;;;;;;;17.60;15.95;;;;;;;5.43;84.90;94498.94;5080877;28;20207;-69
2023/12/07 02:56:24;;;;;;;17.42;15.73;;;;;;;5.45;85.11;94502.16;5097667;28;20620;-69
2023/12/07 02:58:51;;;;;;;16.85;15.25;;;;;;;5.42;84.89;94503.63;5097584;28;20730;-69
2023/12/07 03:01:19;;;;;;;17.27;15.68;;;;;;;5.44;84.54;94504.06;5081209;28;20204;-69
2023/12/07 03:03:46;;;;;;;18.02;16.23;;;;;;;5.44;84.54;94508.75;5097886;28;20195;-69
2023/12/07 03:06:16;;;;;;;17.13;15.52;;;;;;;5.43;84.71;94512.63;5097414;28;20606;-69
2023/12/07 03:08:42;;;;;;;17.30;15.70;;;;;;;5.44;85.11;94506.81;5097085;28;20569;-69
2023/12/07 03:11:09;;;;;;;18.42;16.63;;;;;;;5.43;84.89;94512.63;5097640;28;20196;-69
2023/12/07 03:13:39;;;;;;;18.58;16.88;;;;;;;5.43;84.71;94515.38;5080166;28;20200;-69
2023/12/07 03:16:10;;;;;;;17.40;15.73;;;;;;;5.42;84.79;94511.84;5097940;28;20212;-69
2023/12/07 03:18:46;;;;;;;16.73;15.02;;;;;;;5.41;84.48;94512.16;5097945;28;20258;-68
2023/12/07 03:21:13;;;;;;;16.50;14.90;;;;;;;5.37;84.27;94514.75;5097308;28;20600;-68
2023/12/07 03:23:40;;;;;;;16.45;14.80;;;;;;;5.38;84.72;94515.56;5096691;28;20236;-68
2023/12/07 03:26:07;;;;;;;14.75;13.45;;;;;;;5.35;84.83;94518.97;5080060;28;20250;-68
2023/12/07 03:28:34;;;;;;;14.60;13.30;;;;;;;5.36;84.84;94524.09;5097423;28;20262;-68
2023/12/07 03:31:01;;;;;;;14.48;13.07;;;;;;;5.35;84.77;94519.78;5079277;28;20634;-68
2023/12/07 03:33:28;;;;;;;13.88;12.57;;;;;;;5.35;84.06;94524.44;5097431;28;20204;-68
2023/12/07 03:35:57;;;;;;;14.10;12.88;;;;;;;5.36;84.15;94532.31;5097351;28;20301;-68
2023/12/07 03:38:24;;;;;;;13.43;12.13;;;;;;;5.39;84.31;94537.09;5079349;28;20244;-68
2023/12/07 03:40:55;;;;;;;14.02;12.73;;;;;;;5.36;83.98;94531.50;5097282;28;20184;-68
2023/12/07 03:43:22;;;;;;;14.23;12.93;;;;;;;5.35;84.62;94529.91;5097074;28;20262;-68
2023/12/07 03:45:49;;;;;;;14.18;12.65;;;;;;;5.35;84.58;94532.66;5097120;28;20254;-68
2023/12/07 03:48:17;;;;;;;13.30;12.18;;;;;;;5.33;85.13;94532.97;5079358;28;20208;-68
2023/12/07 03:50:45;;;;;;;12.80;11.63;;;;;;;5.34;85.01;94533.75;5079440;28;20253;-68
2023/12/07 03:53:14;;;;;;;14.13;12.82;;;;;;;5.30;85.31;94523.50;5079427;28;20243;-68
2023/12/07 03:55:41;;;;;;;12.27;11.23;;;;;;;5.31;85.23;94525.09;5096835;28;20197;-68
2023/12/07 03:58:07;;;;;;;12.90;11.80;;;;;;;5.30;85.16;94528.16;5078799;28;20204;-68
2023/12/07 04:00:34;;;;;;;12.77;11.68;;;;;;;5.31;85.14;94525.09;5096668;28;20245;-69
2023/12/07 04:03:01;;;;;;;13.68;12.48;;;;;;;5.31;84.98;94524.31;5096382;28;20609;-69
2023/12/07 04:05:28;;;;;;;11.90;10.80;;;;;;;5.32;85.05;94525.91;5096677;28;20223;-69
2023/12/07 04:07:55;;;;;;;12.65;11.45;;;;;;;5.29;84.44;94524.63;5079117;28;20200;-69
2023/12/07 04:10:23;;;;;;;12.23;11.20;;;;;;;5.30;84.76;94526.25;5096509;28;20239;-69
2023/12/07 04:12:52;;;;;;;13.45;12.30;;;;;;;5.31;84.71;94529.78;5097320;28;20204;-68
2023/12/07 04:15:19;;;;;;;12.57;11.48;;;;;;;5.31;84.90;94525.09;5094665;28;20299;-68
2023/12/07 04:17:46;;;;;;;12.80;11.60;;;;;;;5.31;85.11;94524.31;5096388;28;20192;-68
2023/12/07 04:20:14;;;;;;;12.52;11.52;;;;;;;5.32;85.20;94540.38;5096381;28;20273;-68
2023/12/07 04:22:41;;;;;;;12.05;10.95;;;;;;;5.32;84.91;94534.09;5078945;28;20207;-68
2023/12/07 04:25:09;;;;;;;13.30;12.13;;;;;;;5.36;84.85;94545.19;5096302;28;20191;-69
2023/12/07 04:27:38;;;;;;;12.85;11.75;;;;;;;5.35;84.96;94546.31;5094685;28;20237;-68
2023/12/07 04:30:09;;;;;;;13.00;11.90;;;;;;;5.36;84.86;94551.44;5095870;28;20543;-69
2023/12/07 04:32:36;;;;;;;13.82;12.63;;;;;;;5.40;84.72;94546.09;5095694;28;20287;-69
2023/12/07 04:35:03;;;;;;;15.43;13.93;;;;;;;5.41;85.07;94550.44;5096429;28;20188;-69
2023/12/07 04:37:33;;;;;;;14.35;13.15;;;;;;;5.38;84.65;94546.47;5095793;28;20200;-68
2023/12/07 04:40:00;;;;;;;13.40;12.20;;;;;;;5.38;84.72;94553.88;5095649;28;20540;-68
2023/12/07 04:42:27;;;;;;;13.07;11.98;;;;;;;5.37;84.73;94554.97;5095644;28;20254;-69
2023/12/07 04:44:55;;;;;;;13.43;12.23;;;;;;;5.39;84.43;94559.00;5095903;28;20220;-69
2023/12/07 04:47:23;;;;;;;16.13;14.63;;;;;;;5.40;84.24;94555.13;5095743;28;20224;-70
2023/12/07 04:49:50;;;;;;;15.75;14.25;;;;;;;5.40;83.94;94555.13;5095869;28;20195;-69
2023/12/07 04:52:17;;;;;;;15.88;14.38;;;;;;;5.42;84.22;94557.53;5095182;28;20241;-69
2023/12/07 04:54:44;;;;;;;15.05;13.75;;;;;;;5.43;83.89;94561.88;5095512;28;20568;-69
2023/12/07 04:57:11;;;;;;;16.10;14.65;;;;;;;5.45;83.99;94563.13;5096317;28;20220;-69
2023/12/07 04:59:39;;;;;;;15.23;13.93;;;;;;;5.45;83.83;94556.88;5095820;28;20231;-69
2023/12/07 05:02:07;;;;;;;17.15;15.65;;;;;;;5.47;83.78;94565.53;5095498;28;20301;-69
2023/12/07 05:04:34;;;;;;;15.90;14.40;;;;;;;5.47;83.92;94565.53;5095879;28;20212;-69
2023/12/07 05:07:03;;;;;;;15.65;14.20;;;;;;;5.45;84.19;94565.06;5096022;28;20184;-69
2023/12/07 05:09:31;;;;;;;15.55;14.05;;;;;;;5.43;84.06;94568.13;5094952;28;20189;-69
2023/12/07 05:11:58;;;;;;;14.85;13.35;;;;;;;5.41;83.81;94575.88;5078077;28;20229;-69
2023/12/07 05:14:26;;;;;;;15.98;14.43;;;;;;;5.42;83.86;94573.94;5094263;28;20239;-69
2023/12/07 05:16:55;;;;;;;15.55;14.05;;;;;;;5.41;84.22;94566.84;5095534;28;20197;-69
2023/12/07 05:19:27;;;;;;;14.77;13.40;;;;;;;5.41;84.66;94564.13;5095115;28;20216;-69
2023/12/07 05:21:56;;;;;;;14.65;13.25;;;;;;;5.42;84.41;94568.47;5077637;28;20231;-69
2023/12/07 05:24:24;;;;;;;14.32;13.02;;;;;;;5.44;84.60;94577.13;5094181;28;20212;-69
2023/12/07 05:26:53;;;;;;;14.05;12.75;;;;;;;5.47;84.55;94577.25;5095179;28;20216;-69
2023/12/07 05:29:20;;;;;;;14.98;13.68;;;;;;;5.50;84.35;94589.50;5077844;28;20207;-68
2023/12/07 05:31:49;;;;;;;14.90;13.50;;;;;;;5.48;84.20;94586.28;5077345;28;20195;-69
2023/12/07 05:34:19;;;;;;;14.95;13.65;;;;;;;5.49;84.31;94588.69;5095181;28;20200;-70
2023/12/07 05:36:48;;;;;;;14.27;12.98;;;;;;;5.50;84.39;94584.81;5095279;28;20612;-70
2023/12/07 05:39:17;;;;;;;14.10;12.80;;;;;;;5.51;84.21;94596.56;5094419;28;20597;-69
2023/12/07 05:41:45;;;;;;;13.10;12.00;;;;;;;5.52;83.85;94595.44;5077889;28;20626;-69
2023/12/07 05:44:21;;;;;;;12.50;11.38;;;;;;;5.55;83.85;94598.31;5094563;28;20206;-69
2023/12/07 05:46:49;;;;;;;12.00;10.90;;;;;;;5.60;83.18;94585.56;5095140;28;20237;-69
2023/12/07 05:49:16;;;;;;;12.80;11.52;;;;;;;5.62;83.10;94586.81;5095517;28;20237;-69
2023/12/07 05:51:44;;;;;;;12.93;11.82;;;;;;;5.62;82.94;94599.69;5094905;28;20650;-69
2023/12/07 05:54:20;;;;;;;12.77;11.57;;;;;;;5.62;83.07;94596.97;5095071;28;20277;-69
2023/12/07 05:56:48;;;;;;;12.60;11.30;;;;;;;5.65;82.94;94599.03;5095257;28;20639;-69
2023/12/07 05:59:17;;;;;;;12.85;11.55;;;;;;;5.63;82.98;94593.91;5094647;28;20255;-69
2023/12/07 06:01:45;;;;;;;12.95;10.35;;;;;;;5.64;83.08;94598.25;5077841;28;20287;-69
2023/12/07 06:04:16;;;;;;;11.70;10.57;;;;;;;5.67;82.78;94602.25;5095054;28;20193;-72
2023/12/07 06:06:43;;;;;;;10.85;9.85;;;;;;;5.69;82.82;94603.50;5094614;28;20208;-70
2023/12/07 06:09:12;;;;;;;11.73;10.52;;;;;;;5.71;82.86;94603.97;5078156;28;20254;-71
2023/12/07 06:11:41;;;;;;;11.75;10.65;;;;;;;5.75;83.45;94607.66;5095118;28;20291;-71
2023/12/07 06:14:08;;;;;;;11.65;10.55;;;;;;;5.76;82.86;94606.50;5092813;28;20236;-72
2023/12/07 06:16:36;;;;;;;11.32;10.25;;;;;;;5.76;82.61;94606.50;5095294;28;20223;-72
2023/12/07 06:19:04;;;;;;;13.38;12.07;;;;;;;5.80;82.85;94604.69;5094290;28;20228;-72
2023/12/07 06:21:31;;;;;;;12.48;11.27;;;;;;;5.89;83.08;94606.59;5077534;28;20193;-71
2023/12/07 06:24:01;;;;;;;13.55;12.25;;;;;;;5.92;82.85;94611.38;5093999;28;20655;-73
2023/12/07 06:26:28;;;;;;;14.23;12.85;;;;;;;5.93;82.57;94604.81;5096513;28;20245;-72
2023/12/07 06:28:59;;;;;;;13.40;12.20;;;;;;;5.92;82.40;94605.91;5098808;28;20208;-73
2023/12/07 06:31:30;;;;;;;12.55;11.50;;;;;;;5.89;82.79;94610.13;5098877;28;20239;-72
2023/12/07 06:33:57;;;;;;;12.88;11.80;;;;;;;5.90;82.49;94608.19;5098496;28;20258;-73
2023/12/07 06:36:26;;;;;;;14.52;13.23;;;;;;;5.92;82.31;94614.13;5098625;28;20189;-73
2023/12/07 06:38:56;;;;;;;13.43;12.30;;;;;;;5.90;82.43;94619.94;5098825;28;20242;-72
2023/12/07 06:41:26;;;;;;;12.95;11.60;;;;;;;5.92;82.09;94627.78;5097574;28;20307;-72
2023/12/07 06:43:54;;;;;;;13.43;12.30;;;;;;;5.91;82.07;94623.47;5098492;28;20181;-72
2023/12/07 06:46:26;;;;;;;17.10;15.60;;;;;;;5.91;81.75;94621.53;5098155;28;20188;-73
2023/12/07 06:48:53;;;;;;;17.70;15.27;;;;;;;5.94;82.25;94623.63;5064070;28;20208;-72
2023/12/07 06:51:20;;;;;;;15.55;13.98;;;;;;;5.96;82.27;94626.06;5098486;28;20550;-72
2023/12/07 06:53:48;;;;;;;16.48;14.88;;;;;;;5.96;82.17;94631.53;5098434;28;20181;-71
2023/12/07 06:56:16;;;;;;;16.65;15.15;;;;;;;5.96;81.92;94637.00;5098399;28;20189;-72
2023/12/07 06:58:43;;;;;;;16.08;14.57;;;;;;;6.00;82.04;94636.00;5097962;28;20189;-72
2023/12/07 07:01:14;;;;;;;16.42;14.93;;;;;;;6.03;82.25;94629.06;5097312;28;20281;-72
2023/12/07 07:03:46;;;;;;;14.73;13.45;;;;;;;6.07;81.92;94634.66;5096977;28;20192;-72
2023/12/07 07:06:16;;;;;;;13.40;12.18;;;;;;;6.07;81.25;94637.41;5097033;28;20254;-72
2023/12/07 07:08:43;;;;;;;13.90;12.70;;;;;;;6.08;81.36;94636.25;5080748;28;20291;-68
2023/12/07 07:11:14;;;;;;;13.68;12.48;;;;;;;6.08;81.17;94641.72;5080129;28;20184;-68
2023/12/07 07:13:43;;;;;;;12.27;11.27;;;;;;;6.07;81.42;94638.19;5079460;28;20601;-67
2023/12/07 07:16:11;;;;;;;11.20;10.23;;;;;;;6.08;81.98;94637.06;5097426;28;20177;-72
2023/12/07 07:18:41;;;;;;;12.55;11.38;;;;;;;6.10;82.05;94643.00;5097663;28;20611;-71
2023/12/07 07:21:10;;;;;;;12.07;11.02;;;;;;;6.14;82.10;94643.13;5097530;28;20286;-71
2023/12/07 07:23:37;;;;;;;12.05;11.05;;;;;;;6.13;81.70;94645.06;5080389;28;20235;-72
2023/12/07 07:26:06;;;;;;;11.85;10.75;;;;;;;6.14;81.71;94648.63;5063876;28;20611;-72
2023/12/07 07:28:34;;;;;;;12.07;10.93;;;;;;;6.12;81.61;94648.94;5079604;28;20204;-71
2023/12/07 07:31:02;;;;;;;11.98;10.77;;;;;;;6.13;81.61;94645.06;5097772;28;20188;-72
2023/12/07 07:33:30;;;;;;;10.77;9.88;;;;;;;6.12;81.24;94645.41;5096574;28;20196;-71
2023/12/07 07:36:00;;;;;;;8.35;7.65;;;;;;;6.03;80.84;94656.44;5079747;28;20228;-71
2023/12/07 07:38:31;;;;;;;7.60;7.00;;;;;;;5.91;81.55;94662.59;5096846;28;20185;-72
2023/12/07 07:41:01;;;;;;;6.78;6.20;;;;;;;5.90;81.69;94671.94;5097290;28;20196;-71
2023/12/07 07:43:29;;;;;;;7.38;6.78;;;;;;;5.89;81.21;94664.06;5079662;28;20234;-72
2023/12/07 07:45:56;;;;;;;7.40;6.70;;;;;;;5.91;81.90;94670.00;5097379;28;20233;-72
2023/12/07 07:48:26;;;;;;;7.30;6.60;;;;;;;5.87;81.12;94678.06;5097400;28;20224;-71
2023/12/07 07:50:54;;;;;;;7.13;6.45;;;;;;;5.82;81.41;94670.06;5097188;28;20188;-71
2023/12/07 07:53:21;;;;;;;8.20;6.45;;;;;;;5.84;81.13;94677.94;5079430;28;20293;-71
2023/12/07 07:55:50;;;;;;;7.45;6.75;;;;;;;5.83;81.41;94676.34;5097222;28;20196;-71
2023/12/07 07:58:19;;;;;;;6.40;5.82;;;;;;;5.84;80.84;94681.47;5097217;28;20247;-72
2023/12/07 08:00:49;;;;;;;5.85;5.35;;;;;;;5.79;80.38;94682.47;5096867;28;20223;-71
2023/12/07 08:03:19;;;;;;;4.88;4.47;;;;;;;5.80;80.46;94684.06;5096983;28;20188;-72
2023/12/07 08:05:47;;;;;;;4.82;4.53;;;;;;;5.80;80.30;94681.34;5096752;28;20195;-72
2023/12/07 08:08:14;;;;;;;4.97;4.57;;;;;;;5.76;79.45;94687.81;5097010;28;20188;-72
2023/12/07 08:10:42;;;;;;;6.40;4.30;;;;;;;5.71;79.25;94688.00;5079652;28;20238;-72
2023/12/07 08:13:11;;;;;;;4.60;4.30;;;;;;;5.71;79.28;94694.28;5096706;28;20243;-72
2023/12/07 08:15:38;;;;;;;4.13;3.83;;;;;;;5.71;79.38;94697.03;5094962;28;20244;-72
2023/12/07 08:18:07;;;;;;;4.57;4.20;;;;;;;5.68;78.87;94700.41;5079119;28;20233;-71
2023/12/07 08:20:34;;;;;;;4.88;4.47;;;;;;;5.67;78.91;94704.28;5079086;28;20219;-72
2023/12/07 08:23:04;;;;;;;4.25;3.88;;;;;;;5.67;79.28;94707.03;5096500;28;20194;-71
2023/12/07 08:25:34;;;;;;;4.55;4.25;;;;;;;5.71;78.89;94713.44;5096585;28;20212;-72
2023/12/07 08:28:02;;;;;;;4.43;4.13;;;;;;;5.69;78.76;94710.22;5078888;28;20212;-73
2023/12/07 08:30:38;;;;;;;4.95;4.55;;;;;;;5.66;79.00;94715.53;5078651;28;20188;-72
2023/12/07 08:33:08;;;;;;;4.50;4.20;;;;;;;5.62;78.50;94715.41;5096605;28;20184;-72
2023/12/07 08:35:35;;;;;;;5.00;4.70;;;;;;;5.64;78.26;94709.63;5078393;28;20197;-72
2023/12/07 08:38:04;;;;;;;4.90;4.60;;;;;;;5.64;77.98;94715.88;5078869;28;20255;-72
2023/12/07 08:40:33;;;;;;;4.05;3.75;;;;;;;5.62;78.05;94720.06;5096625;28;20219;-71
2023/12/07 08:43:00;;;;;;;4.32;4.03;;;;;;;5.62;77.62;94722.81;5078607;28;20193;-72
2023/12/07 08:45:27;;;;;;;4.65;4.25;;;;;;;5.62;77.75;94729.09;5096329;28;20180;-72
2023/12/07 08:47:59;;;;;;;5.43;4.90;;;;;;;5.63;77.27;94722.50;5095875;28;20206;-72
2023/12/07 08:50:27;;;;;;;2.80;2.60;;;;;;;5.55;76.72;94726.88;5095043;28;20652;-72
2023/12/07 08:52:56;;;;;;;4.75;4.30;;;;;;;5.52;76.92;94726.75;5078296;28;20188;-73
2023/12/07 08:55:24;;;;;;;3.08;2.88;;;;;;;5.49;76.68;94739.13;5095836;28;20188;-73
2023/12/07 08:57:53;;;;;;;3.10;2.90;;;;;;;5.47;76.95;94733.19;5078375;28;20258;-73
2023/12/07 09:00:26;;;;;;;3.38;3.17;;;;;;;5.47;76.54;94735.13;5078569;28;20216;-72
2023/12/07 09:02:53;;;;;;;2.42;2.33;;;;;;;5.37;76.22;94732.75;5096381;28;20188;-73
2023/12/07 09:05:24;;;;;;;3.30;3.10;;;;;;;5.31;76.59;94734.88;5078170;28;20216;-72
2023/12/07 09:07:53;;;;;;;2.90;2.70;;;;;;;5.28;76.60;94730.06;5095564;28;20212;-72
2023/12/07 09:10:22;;;;;;;3.40;3.10;;;;;;;5.30;76.69;94730.50;5078923;28;20288;-72
2023/12/07 09:12:49;;;;;;;2.70;2.55;;;;;;;5.27;76.49;94731.19;5078369;28;20228;-72
2023/12/07 09:15:18;;;;;;;2.55;2.40;;;;;;;5.22;75.69;94734.88;5060638;28;20237;-72
2023/12/07 09:17:48;;;;;;;4.43;4.13;;;;;;;5.22;76.39;94729.41;5055690;28;20240;-72
2023/12/07 09:20:21;;;;;;;4.00;3.70;;;;;;;5.17;76.14;94729.59;5055462;28;20205;-69
2023/12/07 09:22:51;;;;;;;8.02;7.32;;;;;;;5.14;76.73;94732.19;5055571;28;20193;-73
2023/12/07 09:25:27;;;;;;;3.47;3.28;;;;;;;5.15;76.97;94737.31;5055114;28;20594;-72
2023/12/07 09:27:56;;;;;;;3.22;2.95;;;;;;;5.15;76.68;94731.06;5054761;28;20209;-71
2023/12/07 09:30:25;;;;;;;2.15;2.05;;;;;;;5.08;76.34;94734.28;5054794;28;20252;-71
2023/12/07 09:32:53;;;;;;;1.90;1.80;;;;;;;5.06;76.30;94737.34;5055455;28;20182;-71
2023/12/07 09:35:21;;;;;;;3.00;2.80;;;;;;;5.04;76.63;94736.06;5055266;28;20182;-71
2023/12/07 09:37:51;;;;;;;2.20;2.10;;;;;;;5.01;76.18;94733.97;5054387;28;20609;-71
2023/12/07 09:40:24;;;;;;;3.70;3.40;;;;;;;4.99;76.09;94730.78;5053989;28;20252;-73
2023/12/07 09:42:51;;;;;;;3.25;3.05;;;;;;;4.99;76.11;94734.31;5054389;28;20193;-73
2023/12/07 09:45:20;;;;;;;2.72;2.53;;;;;;;4.95;76.45;94735.28;5055707;28;20264;-72
2023/12/07 09:47:49;;;;;;;2.30;2.20;;;;;;;4.87;76.41;94733.41;5055223;28;20193;-72
2023/12/07 09:50:21;;;;;;;2.30;2.20;;;;;;;4.88;76.23;94732.25;5054564;28;20198;-72
2023/12/07 09:52:51;;;;;;;2.60;2.40;;;;;;;4.89;76.46;94736.59;5054431;28;20198;-72
2023/12/07 09:55:19;;;;;;;1.90;1.80;;;;;;;4.86;76.29;94737.22;5055161;28;20261;-71
2023/12/07 09:57:47;;;;;;;2.05;1.95;;;;;;;4.76;75.95;94735.66;5055162;28;20288;-72
2023/12/07 10:00:15;;;;;;;2.15;1.75;;;;;;;4.64;77.23;94744.50;5055192;28;20220;-71
2023/12/07 10:02:44;;;;;;;1.70;1.60;;;;;;;4.58;76.95;94732.16;5059086;28;20249;-69
2023/12/07 10:05:13;;;;;;;2.10;1.58;;;;;;;4.62;76.95;94735.03;5058145;28;20244;-69
2023/12/07 10:07:42;;;;;;;1.48;1.30;;;;;;;4.64;76.73;94739.03;5057988;28;20201;-69
2023/12/07 10:10:13;;;;;;;1.10;1.10;;;;;;;4.65;76.37;94739.81;5058264;28;20248;-69
2023/12/07 10:12:47;;;;;;;1.20;1.20;;;;;;;4.65;76.40;94737.94;5057691;28;20275;-69
2023/12/07 10:15:17;;;;;;;1.08;1.00;;;;;;;4.67;76.15;94738.38;5084131;28;20231;-69
2023/12/07 10:17:49;;;;;;;1.27;1.20;;;;;;;4.65;76.01;94732.47;5080743;28;20204;-69
2023/12/07 10:20:18;;;;;;;1.50;1.40;;;;;;;4.58;75.59;94732.94;5081075;28;20227;-69
2023/12/07 10:22:45;;;;;;;1.73;1.40;;;;;;;4.54;75.83;94736.66;5098868;28;20254;-68
2023/12/07 10:25:16;;;;;;;1.42;1.42;;;;;;;4.54;76.62;94733.94;5098866;28;20188;-68
2023/12/07 10:27:45;;;;;;;1.60;1.50;;;;;;;4.54;76.42;94731.19;5098903;28;20228;-71
2023/12/07 10:30:15;;;;;;;1.88;1.33;;;;;;;4.49;76.08;94729.41;5099786;28;20184;-71
2023/12/07 10:32:44;;;;;;;1.40;1.30;;;;;;;4.46;76.33;94727.31;5081536;28;20192;-71
2023/12/07 10:35:11;;;;;;;1.30;1.30;;;;;;;4.46;76.34;94732.78;5064911;28;20216;-72
2023/12/07 10:37:38;;;;;;;1.90;1.80;;;;;;;4.43;76.43;94730.72;5081189;28;20197;-73
2023/12/07 10:40:07;;;;;;;1.63;1.52;;;;;;;4.42;76.63;94731.03;5099206;28;20252;-73
2023/12/07 10:42:37;;;;;;;1.70;1.60;;;;;;;4.41;76.52;94735.69;5099056;28;20197;-72
2023/12/07 10:45:19;;;;;;;2.70;2.55;;;;;;;4.39;76.46;94731.66;5081129;28;20210;-72
2023/12/07 10:47:47;;;;;;;3.08;2.88;;;;;;;4.29;76.22;94738.25;5081460;28;20220;-72
2023/12/07 10:50:17;;;;;;;3.28;3.08;;;;;;;4.23;76.71;94731.34;5098805;28;20212;-73
2023/12/07 10:52:47;;;;;;;7.57;7.07;;;;;;;4.24;76.67;94730.22;5099522;28;20253;-72
2023/12/07 10:55:19;;;;;;;2.90;2.70;;;;;;;4.20;76.46;94732.78;5098989;28;20199;-72
2023/12/07 10:57:48;;;;;;;2.40;2.30;;;;;;;4.13;76.71;94732.47;5081054;28;20210;-71
2023/12/07 11:00:16;;;;;;;2.17;2.08;;;;;;;4.15;77.13;94734.88;5082192;28;20206;-73
2023/12/07 11:02:45;;;;;;;2.35;2.20;;;;;;;4.16;77.33;94736.47;5081272;28;20234;-73
2023/12/07 11:05:14;;;;;;;3.30;3.10;;;;;;;4.15;77.39;94738.41;5082245;28;20196;-73
2023/12/07 11:07:52;;;;;;;2.90;2.70;;;;;;;4.16;77.58;94737.28;5099303;28;20177;-72
2023/12/07 11:10:25;;;;;;;3.40;3.20;;;;;;;4.17;77.55;94738.09;5098134;28;20563;-72
2023/12/07 11:13:02;;;;;;;3.42;3.22;;;;;;;4.13;77.39;94734.38;5098145;28;20176;-72
2023/12/07 11:15:29;;;;;;;3.85;3.55;;;;;;;4.18;77.62;94732.31;5098549;28;20262;-70
2023/12/07 11:17:57;;;;;;;3.78;3.47;;;;;;;4.15;77.72;94732.97;5098765;28;20577;-72
2023/12/07 11:20:35;;;;;;;4.22;3.90;;;;;;;4.13;78.16;94740.66;5081632;28;20185;-70
2023/12/07 11:23:07;;;;;;;3.60;3.30;;;;;;;4.09;77.91;94742.41;5097776;28;20204;-71
2023/12/07 11:25:38;;;;;;;3.30;3.00;;;;;;;4.05;77.92;94733.25;5081291;28;20209;-72
2023/12/07 11:28:09;;;;;;;3.20;2.90;;;;;;;4.12;78.03;94740.97;5080236;28;20208;-72
2023/12/07 11:30:40;;;;;;;3.67;3.38;;;;;;;4.13;77.48;94731.66;5098567;28;20188;-72
2023/12/07 11:33:12;;;;;;;3.65;3.35;;;;;;;4.09;77.30;94737.75;5081478;28;20189;-72
2023/12/07 11:36:08;;;;;;;3.28;2.92;;;;;;;4.11;77.52;94729.25;5098528;28;20188;-71
2023/12/07 11:38:38;;;;;;;3.42;3.13;;;;;;;4.13;78.19;94726.19;5098199;28;20177;-71